createdAt,value
2023-01-02T00:00:28.618Z,48.50
2023-01-02T00:01:28.550Z,51.72
2023-01-02T00:02:28.601Z,46.25
2023-01-02T00:03:28.632Z,40.61
2023-01-02T00:04:28.559Z,44.79
2023-01-02T00:05:28.519Z,47.37
2023-01-02T00:06:28.506Z,43.51
2023-01-02T00:07:28.508Z,41.09
2023-01-02T00:08:28.491Z,41.89
2023-01-02T00:09:28.485Z,39.32
2023-01-02T00:10:28.513Z,40.12
2023-01-02T00:11:28.464Z,41.89
2023-01-02T00:12:28.455Z,43.51
2023-01-02T00:13:28.469Z,43.02
2023-01-02T00:14:28.431Z,43.83
2023-01-02T00:15:28.455Z,46.08
2023-01-02T00:16:28.454Z,44.31
2023-01-02T00:17:28.413Z,48.34
2023-01-02T00:18:28.418Z,45.28
2023-01-02T00:19:28.399Z,44.63
2023-01-02T00:20:28.417Z,41.57
2023-01-02T00:21:28.387Z,43.34
2023-01-02T00:22:28.372Z,40.28
2023-01-02T00:23:28.381Z,45.92
2023-01-02T00:24:28.364Z,52.85
2023-01-02T00:25:28.381Z,43.67
2023-01-02T00:26:28.357Z,44.15
2023-01-02T00:27:28.332Z,43.83
2023-01-02T00:28:28.326Z,42.70
2023-01-02T00:29:28.317Z,43.34
2023-01-02T00:30:33.826Z,42.06
2023-01-02T00:31:30.330Z,43.83
2023-01-02T00:32:28.298Z,53.01
2023-01-02T00:33:28.292Z,53.66
2023-01-02T00:34:28.280Z,43.51
2023-01-02T00:35:28.292Z,42.22
2023-01-02T00:36:28.269Z,43.51
2023-01-02T00:37:28.256Z,44.63
2023-01-02T00:38:28.247Z,41.09
2023-01-02T00:39:29.646Z,40.61
2023-01-02T00:40:29.263Z,40.77
2023-01-02T00:41:28.217Z,46.89
2023-01-02T00:42:28.212Z,46.41
2023-01-02T00:43:28.206Z,53.98
2023-01-02T00:44:28.196Z,52.85
2023-01-02T00:45:28.197Z,42.86
2023-01-02T00:46:28.235Z,39.32
2023-01-02T00:47:28.177Z,39.80
2023-01-02T00:48:28.171Z,44.96
2023-01-02T00:49:28.159Z,45.60
2023-01-02T00:50:28.153Z,46.57
2023-01-02T00:51:28.176Z,45.76
2023-01-02T00:52:28.136Z,45.60
2023-01-02T00:53:28.131Z,51.40
2023-01-02T00:54:28.122Z,51.08
2023-01-02T00:55:28.113Z,42.38
2023-01-02T00:56:28.129Z,45.12
2023-01-02T00:57:28.112Z,45.60
2023-01-02T00:58:28.089Z,43.02
2023-01-02T00:59:28.090Z,43.67
2023-01-02T01:00:28.093Z,44.47
2023-01-02T01:01:28.214Z,50.43
2023-01-02T01:02:28.167Z,45.12
2023-01-02T01:03:28.051Z,45.60
2023-01-02T01:04:28.039Z,53.82
2023-01-02T01:05:28.035Z,45.76
2023-01-02T01:06:28.067Z,42.86
2023-01-02T01:07:28.020Z,38.83
2023-01-02T01:08:28.077Z,40.12
2023-01-02T01:09:28.000Z,44.15
2023-01-02T01:10:27.988Z,43.02
2023-01-02T01:11:28.019Z,45.44
2023-01-02T01:12:27.972Z,51.72
2023-01-02T01:13:28.969Z,44.96
2023-01-02T01:14:27.962Z,45.92
2023-01-02T01:15:27.951Z,44.63
2023-01-02T01:16:28.008Z,45.12
2023-01-02T01:17:27.939Z,49.31
2023-01-02T01:18:27.951Z,44.15
2023-01-02T01:19:27.922Z,44.63
2023-01-02T01:20:28.943Z,49.47
2023-01-02T01:21:27.907Z,48.66
2023-01-02T01:22:27.927Z,48.66
2023-01-02T01:23:27.892Z,50.92
2023-01-02T01:24:27.901Z,47.05
2023-01-02T01:25:27.883Z,40.28
2023-01-02T01:26:27.872Z,42.70
2023-01-02T01:27:27.894Z,49.15
2023-01-02T01:28:27.864Z,46.57
2023-01-02T01:29:27.861Z,44.96
2023-01-02T01:30:27.840Z,50.11
2023-01-02T01:31:27.842Z,43.99
2023-01-02T01:32:27.847Z,45.44
2023-01-02T01:33:27.812Z,41.73
2023-01-02T01:34:27.816Z,46.25
2023-01-02T01:35:27.800Z,42.06
2023-01-02T01:36:27.790Z,46.25
2023-01-02T01:37:27.808Z,47.70
2023-01-02T01:38:27.783Z,47.37
2023-01-02T01:39:27.795Z,50.43
2023-01-02T01:40:27.757Z,48.18
2023-01-02T01:41:27.751Z,52.05
2023-01-02T01:42:27.768Z,44.63
2023-01-02T01:43:27.737Z,45.12
2023-01-02T01:44:27.728Z,42.54
2023-01-02T01:45:27.784Z,45.76
2023-01-02T01:46:27.721Z,45.60
2023-01-02T01:47:27.732Z,41.57
2023-01-02T01:48:27.713Z,40.93
2023-01-02T01:49:27.690Z,48.18
2023-01-02T01:50:27.686Z,42.54
2023-01-02T01:51:27.682Z,47.05
2023-01-02T01:52:27.689Z,40.28
2023-01-02T01:53:27.683Z,41.09
2023-01-02T01:54:27.649Z,41.57
2023-01-02T01:55:27.647Z,45.12
2023-01-02T01:56:27.637Z,40.61
2023-01-02T01:57:27.629Z,42.06
2023-01-02T01:58:27.642Z,42.38
2023-01-02T01:59:27.612Z,44.47
2023-01-02T02:00:27.614Z,46.25
2023-01-02T02:01:27.675Z,40.93
2023-01-02T02:02:27.643Z,51.08
2023-01-02T02:03:27.614Z,49.95
2023-01-02T02:04:27.676Z,45.76
2023-01-02T02:05:27.579Z,40.28
2023-01-02T02:06:27.569Z,41.73
2023-01-02T02:07:27.560Z,48.98
2023-01-02T02:08:27.583Z,50.11
2023-01-02T02:09:27.551Z,48.34
2023-01-02T02:10:27.537Z,43.67
2023-01-02T02:11:27.524Z,41.57
2023-01-02T02:12:28.348Z,46.25
2023-01-02T02:13:28.535Z,44.31
2023-01-02T02:14:27.502Z,43.02
2023-01-02T02:15:27.529Z,44.79
2023-01-02T02:16:27.520Z,49.47
2023-01-02T02:17:27.483Z,51.40
2023-01-02T02:18:27.491Z,49.79
2023-01-02T02:19:27.474Z,44.63
2023-01-02T02:20:27.459Z,50.76
2023-01-02T02:21:27.467Z,43.51
2023-01-02T02:22:27.444Z,50.92
2023-01-02T02:23:27.494Z,48.34
2023-01-02T02:24:27.421Z,43.34
2023-01-02T02:25:27.417Z,46.73
2023-01-02T02:26:27.411Z,45.12
2023-01-02T02:27:27.403Z,42.06
2023-01-02T02:28:27.438Z,40.77
2023-01-02T02:29:27.396Z,39.96
2023-01-02T02:30:27.381Z,41.89
2023-01-02T02:31:27.396Z,41.89
2023-01-02T02:32:27.367Z,40.12
2023-01-02T02:33:27.381Z,38.67
2023-01-02T02:34:27.361Z,40.28
2023-01-02T02:35:27.339Z,40.77
2023-01-02T02:36:27.344Z,51.40
2023-01-02T02:37:27.329Z,51.08
2023-01-02T02:38:27.359Z,50.27
2023-01-02T02:39:27.324Z,52.05
2023-01-02T02:40:27.312Z,54.14
2023-01-02T02:41:27.306Z,49.47
2023-01-02T02:42:27.296Z,44.15
2023-01-02T02:43:27.336Z,44.79
2023-01-02T02:44:27.281Z,56.56
2023-01-02T02:45:27.280Z,43.34
2023-01-02T02:46:27.276Z,42.54
2023-01-02T02:47:27.249Z,43.67
2023-01-02T02:48:27.279Z,44.79
2023-01-02T02:49:27.244Z,48.34
2023-01-02T02:50:27.243Z,48.02
2023-01-02T02:51:27.239Z,46.89
2023-01-02T02:52:27.217Z,50.11
2023-01-02T02:53:27.220Z,43.02
2023-01-02T02:54:27.224Z,44.96
2023-01-02T02:55:27.203Z,44.47
2023-01-02T02:56:27.195Z,43.34
2023-01-02T02:57:27.180Z,42.22
2023-01-02T02:58:27.182Z,44.96
2023-01-02T02:59:27.191Z,54.62
2023-01-02T03:00:27.154Z,42.06
2023-01-02T03:01:30.588Z,41.25
2023-01-02T03:02:28.347Z,43.34
2023-01-02T03:03:27.187Z,54.46
2023-01-02T03:04:27.148Z,49.47
2023-01-02T03:05:27.110Z,54.79
2023-01-02T03:06:27.118Z,46.73
2023-01-02T03:07:27.099Z,48.66
2023-01-02T03:08:32.871Z,47.86
2023-01-02T03:09:29.124Z,55.75
2023-01-02T03:10:27.070Z,53.66
2023-01-02T03:11:28.075Z,43.83
2023-01-02T03:12:27.064Z,46.73
2023-01-02T03:13:27.069Z,51.24
2023-01-02T03:14:27.071Z,43.67
2023-01-02T03:15:27.038Z,42.54
2023-01-02T03:16:27.062Z,41.41
2023-01-02T03:17:27.040Z,42.54
2023-01-02T03:18:27.014Z,42.54
2023-01-02T03:19:27.035Z,53.33
2023-01-02T03:20:27.002Z,56.72
2023-01-02T03:21:31.158Z,47.21
2023-01-02T03:22:27.992Z,60.75
2023-01-02T03:23:26.992Z,48.82
2023-01-02T03:24:27.008Z,48.34
2023-01-02T03:25:26.972Z,50.76
2023-01-02T03:26:26.965Z,46.73
2023-01-02T03:27:26.948Z,41.57
2023-01-02T03:28:26.946Z,46.41
2023-01-02T03:29:26.955Z,51.24
2023-01-02T03:30:26.978Z,48.66
2023-01-02T03:31:26.918Z,48.02
2023-01-02T03:32:26.914Z,53.01
2023-01-02T03:33:26.910Z,53.50
2023-01-02T03:34:26.932Z,44.96
2023-01-02T03:35:26.894Z,46.25
2023-01-02T03:36:26.881Z,50.60
2023-01-02T03:37:26.873Z,48.50
2023-01-02T03:38:26.860Z,53.98
2023-01-02T03:39:26.866Z,59.46
2023-01-02T03:40:27.848Z,52.85
2023-01-02T03:41:26.843Z,55.59
2023-01-02T03:42:26.831Z,54.14
2023-01-02T03:43:26.819Z,54.79
2023-01-02T03:44:26.834Z,49.79
2023-01-02T03:45:26.804Z,53.50
2023-01-02T03:46:26.862Z,53.01
2023-01-02T03:47:26.793Z,47.70
2023-01-02T03:48:26.786Z,46.73
2023-01-02T03:49:26.801Z,45.76
2023-01-02T03:50:26.761Z,42.54
2023-01-02T03:51:26.763Z,50.60
2023-01-02T03:52:26.766Z,57.04
2023-01-02T03:53:26.740Z,52.37
2023-01-02T03:54:26.767Z,50.92
2023-01-02T03:55:26.726Z,48.66
2023-01-02T03:56:26.723Z,61.55
2023-01-02T03:57:26.719Z,55.91
2023-01-02T03:58:26.705Z,46.73
2023-01-02T03:59:26.707Z,53.66
2023-01-02T04:00:27.683Z,55.27
2023-01-02T04:01:26.727Z,52.69
2023-01-02T04:02:26.893Z,56.40
2023-01-02T04:03:26.700Z,55.27
2023-01-02T04:04:26.679Z,54.79
2023-01-02T04:05:26.646Z,54.30
2023-01-02T04:06:26.636Z,47.05
2023-01-02T04:07:26.624Z,49.47
2023-01-02T04:08:26.622Z,47.05
2023-01-02T04:09:26.617Z,48.34
2023-01-02T04:10:26.633Z,51.40
2023-01-02T04:11:26.618Z,52.85
2023-01-02T04:12:26.589Z,48.98
2023-01-02T04:13:26.593Z,55.11
2023-01-02T04:14:26.601Z,58.33
2023-01-02T04:15:26.588Z,60.59
2023-01-02T04:16:26.563Z,50.43
2023-01-02T04:17:26.554Z,48.82
2023-01-02T04:18:26.537Z,57.36
2023-01-02T04:19:26.536Z,54.14
2023-01-02T04:20:26.546Z,55.27
2023-01-02T04:21:27.515Z,57.36
2023-01-02T04:22:26.509Z,57.36
2023-01-02T04:23:26.500Z,60.26
2023-01-02T04:24:26.533Z,58.33
2023-01-02T04:25:26.488Z,59.62
2023-01-02T04:26:26.485Z,59.46
2023-01-02T04:27:26.475Z,61.07
2023-01-02T04:28:26.477Z,61.39
2023-01-02T04:29:26.457Z,60.26
2023-01-02T04:30:26.476Z,57.69
2023-01-02T04:31:26.503Z,55.27
2023-01-02T04:32:26.442Z,59.46
2023-01-02T04:33:26.435Z,61.07
2023-01-02T04:34:26.419Z,59.94
2023-01-02T04:35:26.433Z,62.36
2023-01-02T04:36:26.430Z,60.26
2023-01-02T04:37:26.401Z,57.52
2023-01-02T04:38:26.394Z,60.59
2023-01-02T04:39:26.377Z,57.52
2023-01-02T04:40:26.406Z,55.43
2023-01-02T04:41:26.369Z,60.91
2023-01-02T04:42:26.381Z,58.01
2023-01-02T04:43:26.353Z,58.81
2023-01-02T04:44:26.342Z,56.24
2023-01-02T04:45:26.359Z,59.78
2023-01-02T04:46:26.387Z,58.49
2023-01-02T04:47:26.315Z,52.37
2023-01-02T04:48:26.310Z,48.18
2023-01-02T04:49:26.301Z,51.56
2023-01-02T04:50:26.325Z,48.02
2023-01-02T04:51:26.290Z,50.11
2023-01-02T04:52:27.864Z,53.98
2023-01-02T04:53:26.275Z,54.79
2023-01-02T04:54:26.267Z,53.33
2023-01-02T04:55:26.279Z,54.30
2023-01-02T04:56:26.253Z,56.56
2023-01-02T04:57:26.243Z,59.30
2023-01-02T04:58:26.236Z,59.94
2023-01-02T04:59:26.223Z,56.88
2023-01-02T05:00:26.240Z,57.52
2023-01-02T05:01:26.361Z,53.33
2023-01-02T05:02:26.298Z,59.14
2023-01-02T05:03:26.242Z,57.04
2023-01-02T05:04:26.189Z,58.17
2023-01-02T05:05:26.204Z,60.10
2023-01-02T05:06:26.174Z,58.97
2023-01-02T05:07:26.164Z,58.49
2023-01-02T05:08:26.154Z,55.27
2023-01-02T05:09:26.143Z,58.17
2023-01-02T05:10:26.168Z,53.82
2023-01-02T05:11:26.130Z,58.33
2023-01-02T05:12:26.131Z,56.72
2023-01-02T05:13:26.118Z,59.30
2023-01-02T05:14:26.112Z,60.75
2023-01-02T05:15:26.125Z,57.85
2023-01-02T05:16:26.167Z,54.62
2023-01-02T05:17:26.085Z,54.30
2023-01-02T05:18:26.087Z,57.04
2023-01-02T05:19:26.086Z,62.04
2023-01-02T05:20:26.101Z,59.94
2023-01-02T05:21:26.057Z,55.43
2023-01-02T05:22:26.048Z,55.27
2023-01-02T05:23:26.056Z,60.91
2023-01-02T05:24:26.116Z,57.69
2023-01-02T05:25:26.051Z,58.49
2023-01-02T05:26:26.016Z,60.91
2023-01-02T05:27:26.027Z,57.85
2023-01-02T05:28:26.003Z,59.30
2023-01-02T05:29:25.997Z,60.75
2023-01-02T05:30:26.015Z,61.55
2023-01-02T05:31:26.019Z,61.23
2023-01-02T05:32:25.971Z,59.94
2023-01-02T05:33:25.960Z,61.07
2023-01-02T05:34:25.959Z,57.85
2023-01-02T05:35:32.213Z,58.97
2023-01-02T05:36:27.951Z,61.39
2023-01-02T05:37:25.931Z,56.56
2023-01-02T05:38:25.931Z,56.72
2023-01-02T05:39:25.916Z,58.65
2023-01-02T05:40:25.948Z,62.20
2023-01-02T05:41:25.907Z,61.87
2023-01-02T05:42:25.895Z,62.04
2023-01-02T05:43:25.910Z,61.87
2023-01-02T05:44:25.879Z,60.59
2023-01-02T05:45:25.900Z,62.36
2023-01-02T05:46:25.918Z,59.30
2023-01-02T05:47:25.868Z,61.39
2023-01-02T05:48:25.841Z,63.65
2023-01-02T05:49:25.840Z,65.58
2023-01-02T05:50:25.826Z,62.36
2023-01-02T05:51:25.843Z,62.68
2023-01-02T05:52:25.820Z,61.71
2023-01-02T05:53:25.806Z,60.75
2023-01-02T05:54:25.811Z,60.91
2023-01-02T05:55:25.791Z,60.26
2023-01-02T05:56:25.810Z,60.59
2023-01-02T05:57:25.775Z,60.26
2023-01-02T05:58:25.773Z,61.39
2023-01-02T05:59:25.756Z,61.55
2023-01-02T06:00:25.762Z,61.07
2023-01-02T06:01:25.801Z,60.42
2023-01-02T06:02:25.861Z,56.56
2023-01-02T06:03:25.914Z,59.46
2023-01-02T06:04:25.720Z,58.49
2023-01-02T06:05:25.729Z,60.75
2023-01-02T06:06:25.736Z,60.59
2023-01-02T06:07:25.695Z,64.13
2023-01-02T06:08:25.689Z,59.94
2023-01-02T06:09:25.683Z,57.52
2023-01-02T06:10:25.673Z,61.39
2023-01-02T06:11:25.691Z,63.65
2023-01-02T06:12:25.660Z,63.00
2023-01-02T06:13:25.654Z,62.20
2023-01-02T06:14:25.645Z,61.39
2023-01-02T06:15:25.640Z,60.91
2023-01-02T06:16:25.669Z,60.91
2023-01-02T06:17:25.616Z,61.55
2023-01-02T06:18:25.615Z,60.10
2023-01-02T06:19:25.615Z,62.68
2023-01-02T06:20:25.597Z,60.59
2023-01-02T06:21:25.617Z,62.20
2023-01-02T06:22:25.578Z,60.75
2023-01-02T06:23:25.574Z,61.55
2023-01-02T06:24:25.564Z,61.55
2023-01-02T06:25:25.570Z,63.81
2023-01-02T06:26:29.839Z,62.04
2023-01-02T06:27:26.554Z,61.07
2023-01-02T06:28:25.533Z,63.65
2023-01-02T06:29:25.551Z,63.00
2023-01-02T06:30:25.519Z,61.23
2023-01-02T06:31:25.587Z,60.26
2023-01-02T06:32:25.518Z,63.33
2023-01-02T06:33:25.517Z,61.39
2023-01-02T06:34:25.490Z,61.07
2023-01-02T06:35:25.486Z,61.55
2023-01-02T06:36:25.497Z,62.52
2023-01-02T06:37:25.476Z,60.42
2023-01-02T06:38:25.458Z,59.78
2023-01-02T06:39:25.456Z,63.16
2023-01-02T06:40:25.443Z,58.17
2023-01-02T06:41:25.475Z,60.75
2023-01-02T06:42:25.428Z,60.75
2023-01-02T06:43:25.413Z,58.65
2023-01-02T06:44:25.408Z,62.84
2023-01-02T06:45:25.464Z,60.10
2023-01-02T06:46:25.425Z,60.42
2023-01-02T06:47:25.388Z,58.65
2023-01-02T06:48:25.382Z,59.46
2023-01-02T06:49:25.433Z,55.75
2023-01-02T06:50:29.901Z,63.33
2023-01-02T06:51:27.397Z,62.36
2023-01-02T06:52:25.349Z,60.26
2023-01-02T06:53:25.351Z,61.55
2023-01-02T06:54:25.347Z,61.39
2023-01-02T06:55:25.328Z,60.42
2023-01-02T06:56:25.346Z,58.81
2023-01-02T06:57:25.311Z,59.94
2023-01-02T06:58:25.305Z,57.20
2023-01-02T06:59:25.295Z,62.04
2023-01-02T07:00:25.291Z,60.42
2023-01-02T07:01:25.415Z,57.36
2023-01-02T07:02:25.316Z,61.55
2023-01-02T07:03:25.266Z,56.56
2023-01-02T07:04:25.256Z,60.91
2023-01-02T07:05:25.256Z,62.68
2023-01-02T07:06:25.270Z,59.78
2023-01-02T07:07:25.235Z,59.78
2023-01-02T07:08:25.232Z,58.01
2023-01-02T07:09:25.218Z,58.97
2023-01-02T07:10:25.219Z,60.75
2023-01-02T07:11:25.226Z,58.81
2023-01-02T07:12:25.194Z,61.39
2023-01-02T07:13:25.188Z,59.30
2023-01-02T07:14:25.189Z,59.62
2023-01-02T07:15:25.170Z,59.62
2023-01-02T07:16:25.298Z,60.59
2023-01-02T07:17:25.157Z,57.04
2023-01-02T07:18:25.151Z,57.20
2023-01-02T07:19:25.139Z,57.52
2023-01-02T07:20:25.128Z,60.91
2023-01-02T07:21:25.150Z,57.20
2023-01-02T07:22:25.116Z,56.72
2023-01-02T07:23:25.104Z,63.33
2023-01-02T07:24:26.099Z,65.42
2023-01-02T07:25:25.085Z,59.62
2023-01-02T07:26:25.120Z,63.33
2023-01-02T07:27:25.077Z,58.49
2023-01-02T07:28:25.069Z,56.88
2023-01-02T07:29:25.062Z,57.20
2023-01-02T07:30:25.045Z,61.07
2023-01-02T07:31:25.121Z,62.04
2023-01-02T07:32:27.507Z,58.81
2023-01-02T07:33:26.029Z,58.17
2023-01-02T07:34:25.020Z,56.56
2023-01-02T07:35:25.011Z,61.39
2023-01-02T07:36:25.027Z,58.65
2023-01-02T07:37:24.996Z,59.78
2023-01-02T07:38:24.999Z,59.14
2023-01-02T07:39:24.986Z,61.55
2023-01-02T07:40:31.848Z,62.68
2023-01-02T07:41:26.997Z,54.62
2023-01-02T07:42:24.957Z,61.55
2023-01-02T07:43:24.966Z,60.75
2023-01-02T07:44:24.940Z,58.17
2023-01-02T07:45:24.931Z,58.97
2023-01-02T07:46:24.983Z,57.69
2023-01-02T07:47:24.916Z,59.30
2023-01-02T07:48:24.921Z,56.07
2023-01-02T07:49:24.904Z,61.23
2023-01-02T07:50:24.893Z,60.75
2023-01-02T07:51:27.659Z,59.46
2023-01-02T07:52:25.883Z,58.65
2023-01-02T07:53:24.874Z,58.49
2023-01-02T07:54:24.861Z,58.65
2023-01-02T07:55:24.850Z,61.87
2023-01-02T07:56:24.883Z,62.36
2023-01-02T07:57:24.850Z,49.47
2023-01-02T07:58:24.868Z,53.98
2023-01-02T07:59:24.837Z,59.30
2023-01-02T08:00:24.819Z,57.52
2023-01-02T08:01:24.992Z,49.63
2023-01-02T08:02:24.855Z,44.96
2023-01-02T08:03:24.829Z,57.36
2023-01-02T08:04:24.848Z,59.94
2023-01-02T08:05:24.810Z,55.59
2023-01-02T08:06:24.776Z,53.50
2023-01-02T08:07:24.790Z,58.33
2023-01-02T08:08:24.773Z,54.30
2023-01-02T08:09:24.750Z,58.33
2023-01-02T08:10:24.736Z,52.37
2023-01-02T08:11:24.737Z,52.37
2023-01-02T08:12:24.752Z,60.59
2023-01-02T08:13:24.708Z,57.69
2023-01-02T08:14:24.719Z,60.75
2023-01-02T08:15:24.702Z,57.36
2023-01-02T08:16:24.750Z,59.78
2023-01-02T08:17:24.768Z,60.26
2023-01-02T08:18:24.670Z,57.52
2023-01-02T08:19:24.668Z,58.17
2023-01-02T08:20:24.661Z,58.49
2023-01-02T08:21:24.654Z,60.10
2023-01-02T08:22:24.668Z,60.59
2023-01-02T08:23:24.635Z,59.14
2023-01-02T08:24:24.626Z,55.43
2023-01-02T08:25:24.616Z,56.56
2023-01-02T08:26:24.614Z,58.01
2023-01-02T08:27:24.626Z,54.46
2023-01-02T08:28:24.594Z,56.07
2023-01-02T08:29:24.586Z,59.30
2023-01-02T08:30:24.592Z,57.69
2023-01-02T08:31:24.610Z,56.88
2023-01-02T08:32:24.630Z,56.56
2023-01-02T08:33:24.563Z,52.21
2023-01-02T08:34:24.545Z,55.43
2023-01-02T08:35:37.430Z,51.72
2023-01-02T08:36:26.527Z,54.79
2023-01-02T08:37:24.541Z,51.40
2023-01-02T08:38:24.521Z,54.14
2023-01-02T08:39:24.504Z,56.24
2023-01-02T08:40:24.495Z,52.53
2023-01-02T08:41:24.518Z,50.60
2023-01-02T08:42:24.506Z,57.20
2023-01-02T08:43:24.468Z,52.53
2023-01-02T08:44:24.464Z,59.62
2023-01-02T08:45:24.456Z,51.72
2023-01-02T08:46:24.572Z,56.56
2023-01-02T08:47:24.461Z,54.30
2023-01-02T08:48:24.430Z,52.37
2023-01-02T08:49:24.439Z,57.04
2023-01-02T08:50:24.420Z,57.69
2023-01-02T08:51:24.408Z,53.50
2023-01-02T08:52:24.425Z,57.20
2023-01-02T08:53:24.399Z,58.01
2023-01-02T08:54:24.402Z,57.20
2023-01-02T08:55:24.376Z,52.53
2023-01-02T08:56:24.371Z,46.08
2023-01-02T08:57:24.395Z,53.17
2023-01-02T08:58:24.356Z,56.07
2023-01-02T08:59:24.351Z,54.79
2023-01-02T09:00:24.336Z,52.85
2023-01-02T09:01:24.452Z,55.59
2023-01-02T09:02:24.619Z,55.11
2023-01-02T09:03:24.348Z,58.65
2023-01-02T09:04:24.323Z,50.92
2023-01-02T09:05:24.300Z,57.20
2023-01-02T09:06:24.297Z,51.40
2023-01-02T09:07:24.311Z,58.01
2023-01-02T09:08:24.278Z,53.17
2023-01-02T09:09:24.274Z,50.60
2023-01-02T09:10:24.261Z,55.59
2023-01-02T09:11:24.255Z,53.50
2023-01-02T09:12:24.277Z,53.50
2023-01-02T09:13:24.241Z,56.56
2023-01-02T09:14:24.231Z,57.52
2023-01-02T09:15:24.224Z,53.98
2023-01-02T09:16:24.214Z,56.72
2023-01-02T09:17:24.246Z,49.31
2023-01-02T09:18:29.238Z,48.18
2023-01-02T09:19:26.191Z,49.79
2023-01-02T09:20:24.179Z,49.79
2023-01-02T09:21:24.177Z,52.53
2023-01-02T09:22:24.176Z,53.01
2023-01-02T09:23:24.180Z,56.56
2023-01-02T09:24:24.144Z,56.07
2023-01-02T09:25:24.733Z,53.01
2023-01-02T09:26:25.140Z,51.40
2023-01-02T09:27:24.130Z,49.79
2023-01-02T09:28:24.141Z,47.86
2023-01-02T09:29:24.103Z,50.92
2023-01-02T09:30:24.091Z,53.01
2023-01-02T09:31:24.145Z,50.43
2023-01-02T09:32:24.090Z,49.31
2023-01-02T09:33:24.102Z,50.76
2023-01-02T09:34:24.062Z,47.53
2023-01-02T09:35:24.056Z,45.92
2023-01-02T09:36:24.045Z,50.92
2023-01-02T09:37:24.036Z,46.73
2023-01-02T09:38:24.061Z,47.53
2023-01-02T09:39:30.256Z,53.01
2023-01-02T09:40:26.013Z,47.05
2023-01-02T09:41:24.009Z,55.27
2023-01-02T09:42:24.008Z,53.33
2023-01-02T09:43:24.020Z,51.24
2023-01-02T09:44:23.987Z,53.66
2023-01-02T09:45:23.983Z,51.08
2023-01-02T09:46:24.052Z,51.88
2023-01-02T09:47:23.982Z,51.72
2023-01-02T09:48:23.977Z,52.21
2023-01-02T09:49:23.956Z,52.37
2023-01-02T09:50:23.960Z,53.01
2023-01-02T09:51:23.928Z,47.53
2023-01-02T09:52:23.920Z,47.37
2023-01-02T09:53:23.942Z,52.53
2023-01-02T09:54:23.900Z,51.40
2023-01-02T09:55:23.900Z,52.05
2023-01-02T09:56:27.555Z,52.37
2023-01-02T09:57:24.890Z,52.85
2023-01-02T09:58:23.906Z,50.76
2023-01-02T09:59:23.861Z,49.63
2023-01-02T10:00:23.903Z,52.85
2023-01-02T10:01:23.902Z,52.21
2023-01-02T10:02:23.869Z,45.44
2023-01-02T10:03:23.924Z,48.18
2023-01-02T10:04:23.885Z,54.14
2023-01-02T10:05:23.813Z,51.24
2023-01-02T10:06:23.814Z,49.79
2023-01-02T10:07:23.801Z,48.98
2023-01-02T10:08:31.198Z,49.63
2023-01-02T10:09:25.781Z,52.37
2023-01-02T10:10:23.848Z,49.15
2023-01-02T10:11:23.779Z,52.21
2023-01-02T10:12:23.758Z,52.05
2023-01-02T10:13:32.655Z,50.92
2023-01-02T10:14:33.852Z,49.95
2023-01-02T10:15:25.765Z,53.98
2023-01-02T10:16:23.754Z,49.95
2023-01-02T10:17:23.746Z,49.95
2023-01-02T10:18:23.739Z,55.59
2023-01-02T10:19:23.707Z,49.63
2023-01-02T10:20:24.406Z,50.43
2023-01-02T10:21:24.705Z,50.43
2023-01-02T10:22:23.679Z,50.60
2023-01-02T10:23:23.720Z,52.21
2023-01-02T10:24:23.672Z,51.56
2023-01-02T10:25:23.649Z,50.92
2023-01-02T10:26:23.659Z,52.05
2023-01-02T10:27:23.649Z,51.40
2023-01-02T10:28:23.658Z,51.72
2023-01-02T10:29:23.628Z,53.01
2023-01-02T10:30:23.615Z,50.92
2023-01-02T10:31:23.670Z,50.11
2023-01-02T10:32:23.612Z,49.15
2023-01-02T10:33:23.623Z,48.02
2023-01-02T10:34:23.589Z,51.40
2023-01-02T10:35:23.576Z,53.33
2023-01-02T10:36:23.568Z,51.72
2023-01-02T10:37:23.559Z,51.72
2023-01-02T10:38:23.889Z,51.72
2023-01-02T10:39:23.547Z,50.92
2023-01-02T10:40:23.535Z,50.43
2023-01-02T10:41:23.529Z,48.66
2023-01-02T10:42:23.521Z,53.33
2023-01-02T10:43:23.516Z,51.08
2023-01-02T10:44:23.553Z,51.40
2023-01-02T10:45:23.535Z,53.98
2023-01-02T10:46:23.503Z,54.79
2023-01-02T10:47:23.486Z,53.82
2023-01-02T10:48:23.507Z,53.50
2023-01-02T10:49:23.470Z,48.02
2023-01-02T10:50:23.470Z,51.08
2023-01-02T10:51:23.453Z,50.92
2023-01-02T10:52:23.444Z,54.62
2023-01-02T10:53:23.453Z,51.72
2023-01-02T10:54:23.452Z,52.21
2023-01-02T10:55:23.422Z,51.08
2023-01-02T10:56:23.427Z,49.63
2023-01-02T10:57:23.402Z,50.11
2023-01-02T10:58:23.406Z,51.24
2023-01-02T10:59:23.424Z,50.43
2023-01-02T11:00:31.150Z,51.56
2023-01-02T11:01:25.446Z,53.17
2023-01-02T11:02:23.426Z,51.88
2023-01-02T11:03:23.379Z,53.01
2023-01-02T11:04:23.383Z,55.11
2023-01-02T11:05:23.363Z,53.50
2023-01-02T11:06:27.795Z,55.43
2023-01-02T11:07:25.329Z,54.95
2023-01-02T11:08:23.321Z,56.88
2023-01-02T11:09:23.338Z,57.20
2023-01-02T11:10:23.307Z,58.33
2023-01-02T11:11:23.301Z,53.66
2023-01-02T11:12:27.205Z,53.66
2023-01-02T11:13:24.289Z,53.01
2023-01-02T11:14:23.304Z,54.46
2023-01-02T11:15:23.269Z,53.50
2023-01-02T11:16:23.307Z,52.53
2023-01-02T11:17:23.252Z,52.05
2023-01-02T11:18:23.242Z,53.01
2023-01-02T11:19:29.400Z,52.53
2023-01-02T11:20:25.237Z,53.01
2023-01-02T11:21:23.219Z,52.85
2023-01-02T11:22:23.211Z,47.86
2023-01-02T11:23:23.207Z,48.18
2023-01-02T11:24:23.219Z,52.05
2023-01-02T11:25:23.185Z,49.63
2023-01-02T11:26:23.180Z,51.24
2023-01-02T11:27:23.168Z,54.62
2023-01-02T11:28:23.159Z,50.11
2023-01-02T11:29:23.178Z,50.43
2023-01-02T11:30:23.145Z,49.63
2023-01-02T11:31:24.179Z,52.37
2023-01-02T11:32:23.135Z,53.82
2023-01-02T11:33:23.130Z,49.63
2023-01-02T11:34:23.157Z,54.62
2023-01-02T11:35:23.108Z,50.92
2023-01-02T11:36:23.104Z,51.40
2023-01-02T11:37:23.097Z,50.43
2023-01-02T11:38:30.190Z,48.82
2023-01-02T11:39:25.115Z,52.21
2023-01-02T11:40:23.071Z,52.05
2023-01-02T11:41:23.063Z,51.88
2023-01-02T11:42:23.055Z,49.95
2023-01-02T11:43:23.042Z,52.05
2023-01-02T11:44:23.058Z,53.50
2023-01-02T11:45:23.150Z,50.43
2023-01-02T11:46:23.027Z,52.69
2023-01-02T11:47:23.036Z,54.14
2023-01-02T11:48:23.078Z,51.24
2023-01-02T11:49:23.011Z,52.69
2023-01-02T11:50:23.014Z,55.11
2023-01-02T11:51:22.979Z,49.31
2023-01-02T11:52:22.974Z,50.92
2023-01-02T11:53:22.969Z,51.24
2023-01-02T11:54:22.980Z,52.21
2023-01-02T11:55:22.950Z,54.46
2023-01-02T11:56:22.946Z,51.72
2023-01-02T11:57:22.938Z,50.27
2023-01-02T11:58:22.925Z,48.66
2023-01-02T11:59:22.915Z,48.02
2023-01-02T12:00:22.936Z,47.53
2023-01-02T12:01:22.940Z,57.04
2023-01-02T12:02:23.033Z,52.85
2023-01-02T12:03:22.997Z,52.69
2023-01-02T12:04:22.887Z,50.43
2023-01-02T12:05:22.903Z,51.24
2023-01-02T12:06:22.870Z,50.27
2023-01-02T12:07:22.862Z,47.21
2023-01-02T12:08:22.851Z,49.95
2023-01-02T12:09:22.850Z,53.33
2023-01-02T12:10:22.864Z,52.05
2023-01-02T12:11:22.839Z,52.37
2023-01-02T12:12:22.820Z,54.62
2023-01-02T12:13:22.806Z,50.92
2023-01-02T12:14:22.806Z,50.76
2023-01-02T12:15:22.815Z,49.15
2023-01-02T12:16:22.832Z,50.92
2023-01-02T12:17:22.779Z,50.92
2023-01-02T12:18:22.774Z,53.01
2023-01-02T12:19:22.766Z,53.82
2023-01-02T12:20:22.776Z,49.79
2023-01-02T12:21:22.750Z,52.05
2023-01-02T12:22:22.743Z,48.02
2023-01-02T12:23:22.715Z,48.98
2023-01-02T12:24:23.720Z,49.63
2023-01-02T12:25:22.737Z,49.63
2023-01-02T12:26:22.706Z,50.43
2023-01-02T12:27:22.701Z,50.60
2023-01-02T12:28:22.888Z,51.40
2023-01-02T12:29:46.726Z,48.18
2023-01-02T12:30:23.735Z,47.37
2023-01-02T12:31:22.717Z,51.24
2023-01-02T12:32:22.701Z,54.46
2023-01-02T12:33:22.653Z,50.43
2023-01-02T12:34:22.643Z,53.50
2023-01-02T12:35:22.666Z,51.56
2023-01-02T12:36:22.700Z,51.88
2023-01-02T12:37:22.615Z,55.59
2023-01-02T12:38:23.892Z,53.66
2023-01-02T12:39:23.599Z,53.66
2023-01-02T12:40:22.625Z,51.08
2023-01-02T12:41:22.629Z,52.21
2023-01-02T12:42:22.576Z,53.01
2023-01-02T12:43:22.573Z,50.92
2023-01-02T12:44:22.559Z,52.53
2023-01-02T12:45:22.576Z,51.56
2023-01-02T12:46:22.550Z,51.72
2023-01-02T12:47:22.538Z,52.85
2023-01-02T12:48:22.526Z,58.33
2023-01-02T12:49:22.524Z,51.08
2023-01-02T12:50:22.515Z,53.82
2023-01-02T12:51:22.529Z,51.56
2023-01-02T12:52:22.497Z,50.60